ADDS METAR Data INFO
IDs: Format: Raw Decoded Include TAF

Data at: 2023 UTC 20 Jul 2018

METAR for:TNCM (St Maarten Intl, --, MN)
Text:TNCM 202000Z 09012KT 030V110 9999 SCT018 31/22 Q1017 NOSIG RMK A3003, LGT HZ
Temperature: 31.0°C ( 88°F)
Dewpoint: 22.0°C ( 72°F) [RH = 59%]
Pressure (altimeter):30.03 inches Hg (1017.0 mb)
Winds:from the E (90 degrees) at 14 MPH (12 knots; 6.2 m/s)
Visibility:6 or more sm (10+ km)
Ceiling:at least 12,000 feet AGL
Clouds: scattered clouds at 1800 feet AGL